sensor_id;sensor_type;location;lat;lon;timestamp;P1;durP1;ratioP1;P2;durP2;ratioP2
20365;SDS011;10341;49.894;8.822;2023-11-19T00:04:16;2.10;;;1.63;;
20365;SDS011;10341;49.894;8.822;2023-11-19T00:09:36;2.28;;;1.70;;
20365;SDS011;10341;49.894;8.822;2023-11-19T00:14:56;2.10;;;1.88;;
20365;SDS011;10341;49.894;8.822;2023-11-19T00:20:16;2.78;;;2.00;;
20365;SDS011;10341;49.894;8.822;2023-11-19T00:25:37;2.13;;;1.88;;
20365;SDS011;10341;49.894;8.822;2023-11-19T00:30:57;2.55;;;1.88;;
20365;SDS011;10341;49.894;8.822;2023-11-19T00:36:16;2.40;;;1.73;;
20365;SDS011;10341;49.894;8.822;2023-11-19T00:41:35;2.23;;;1.70;;
20365;SDS011;10341;49.894;8.822;2023-11-19T00:46:54;2.73;;;1.90;;
20365;SDS011;10341;49.894;8.822;2023-11-19T00:52:14;1.92;;;1.70;;
20365;SDS011;10341;49.894;8.822;2023-11-19T00:57:34;2.28;;;1.67;;
20365;SDS011;10341;49.894;8.822;2023-11-19T01:02:54;2.55;;;1.83;;
20365;SDS011;10341;49.894;8.822;2023-11-19T01:08:13;2.58;;;1.90;;
20365;SDS011;10341;49.894;8.822;2023-11-19T01:13:33;2.15;;;1.70;;
20365;SDS011;10341;49.894;8.822;2023-11-19T01:18:52;2.53;;;1.73;;
20365;SDS011;10341;49.894;8.822;2023-11-19T01:24:12;2.30;;;1.50;;
20365;SDS011;10341;49.894;8.822;2023-11-19T01:29:33;2.05;;;1.60;;
20365;SDS011;10341;49.894;8.822;2023-11-19T01:34:53;2.88;;;1.30;;
20365;SDS011;10341;49.894;8.822;2023-11-19T01:40:12;2.47;;;1.30;;
20365;SDS011;10341;49.894;8.822;2023-11-19T01:45:31;1.42;;;1.20;;
20365;SDS011;10341;49.894;8.822;2023-11-19T01:50:53;1.15;;;1.00;;
20365;SDS011;10341;49.894;8.822;2023-11-19T02:01:33;1.25;;;1.08;;
20365;SDS011;10341;49.894;8.822;2023-11-19T02:06:58;1.10;;;1.00;;
20365;SDS011;10341;49.894;8.822;2023-11-19T02:17:39;0.80;;;0.80;;
20365;SDS011;10341;49.894;8.822;2023-11-19T02:22:58;1.92;;;0.82;;
20365;SDS011;10341;49.894;8.822;2023-11-19T02:28:17;1.00;;;0.70;;
20365;SDS011;10341;49.894;8.822;2023-11-19T02:33:37;0.50;;;0.50;;
20365;SDS011;10341;49.894;8.822;2023-11-19T02:38:57;1.40;;;0.73;;
20365;SDS011;10341;49.894;8.822;2023-11-19T02:44:17;0.88;;;0.80;;
20365;SDS011;10341;49.894;8.822;2023-11-19T02:49:36;0.98;;;0.73;;
20365;SDS011;10341;49.894;8.822;2023-11-19T02:54:56;1.60;;;0.70;;
20365;SDS011;10341;49.894;8.822;2023-11-19T03:00:20;0.70;;;0.60;;
20365;SDS011;10341;49.894;8.822;2023-11-19T03:05:47;0.40;;;0.40;;
20365;SDS011;10341;49.894;8.822;2023-11-19T03:11:06;0.52;;;0.52;;
20365;SDS011;10341;49.894;8.822;2023-11-19T03:16:27;0.40;;;0.40;;
20365;SDS011;10341;49.894;8.822;2023-11-19T03:21:47;0.40;;;0.40;;
20365;SDS011;10341;49.894;8.822;2023-11-19T03:27:07;0.90;;;0.50;;
20365;SDS011;10341;49.894;8.822;2023-11-19T03:32:26;0.50;;;0.50;;
20365;SDS011;10341;49.894;8.822;2023-11-19T03:37:46;0.57;;;0.45;;
20365;SDS011;10341;49.894;8.822;2023-11-19T03:43:05;0.93;;;0.60;;
20365;SDS011;10341;49.894;8.822;2023-11-19T03:48:24;0.60;;;0.60;;
20365;SDS011;10341;49.894;8.822;2023-11-19T03:53:44;1.55;;;0.82;;
20365;SDS011;10341;49.894;8.822;2023-11-19T04:04:23;0.47;;;0.40;;
20365;SDS011;10341;49.894;8.822;2023-11-19T04:09:42;0.55;;;0.50;;
20365;SDS011;10341;49.894;8.822;2023-11-19T04:15:02;0.40;;;0.40;;
20365;SDS011;10341;49.894;8.822;2023-11-19T04:20:21;0.35;;;0.35;;
20365;SDS011;10341;49.894;8.822;2023-11-19T04:25:41;0.98;;;0.47;;
20365;SDS011;10341;49.894;8.822;2023-11-19T04:31:00;0.43;;;0.43;;
20365;SDS011;10341;49.894;8.822;2023-11-19T04:36:19;0.60;;;0.60;;
20365;SDS011;10341;49.894;8.822;2023-11-19T04:41:45;0.77;;;0.65;;
20365;SDS011;10341;49.894;8.822;2023-11-19T04:47:06;1.02;;;0.98;;
20365;SDS011;10341;49.894;8.822;2023-11-19T04:52:25;1.00;;;0.68;;
20365;SDS011;10341;49.894;8.822;2023-11-19T04:57:44;2.40;;;1.03;;
20365;SDS011;10341;49.894;8.822;2023-11-19T05:09:45;1.77;;;1.20;;
20365;SDS011;10341;49.894;8.822;2023-11-19T05:15:04;2.33;;;1.30;;
20365;SDS011;10341;49.894;8.822;2023-11-19T05:20:23;3.35;;;2.33;;
20365;SDS011;10341;49.894;8.822;2023-11-19T05:25:43;2.17;;;1.63;;
20365;SDS011;10341;49.894;8.822;2023-11-19T05:31:02;3.22;;;1.25;;
20365;SDS011;10341;49.894;8.822;2023-11-19T05:36:21;3.33;;;2.10;;
20365;SDS011;10341;49.894;8.822;2023-11-19T05:41:40;4.28;;;2.10;;
20365;SDS011;10341;49.894;8.822;2023-11-19T05:46:59;3.30;;;2.10;;
20365;SDS011;10341;49.894;8.822;2023-11-19T05:52:18;2.60;;;2.17;;
20365;SDS011;10341;49.894;8.822;2023-11-19T05:57:37;6.78;;;2.20;;
20365;SDS011;10341;49.894;8.822;2023-11-19T06:02:56;2.67;;;2.08;;
20365;SDS011;10341;49.894;8.822;2023-11-19T06:08:16;2.22;;;1.60;;
20365;SDS011;10341;49.894;8.822;2023-11-19T06:13:35;2.30;;;1.70;;
20365;SDS011;10341;49.894;8.822;2023-11-19T06:18:55;1.88;;;1.67;;
20365;SDS011;10341;49.894;8.822;2023-11-19T06:24:14;1.95;;;1.75;;
20365;SDS011;10341;49.894;8.822;2023-11-19T06:29:34;1.95;;;1.58;;
20365;SDS011;10341;49.894;8.822;2023-11-19T06:34:53;3.25;;;1.70;;
20365;SDS011;10341;49.894;8.822;2023-11-19T06:40:12;2.25;;;1.80;;
20365;SDS011;10341;49.894;8.822;2023-11-19T06:45:31;1.50;;;1.30;;
20365;SDS011;10341;49.894;8.822;2023-11-19T06:50:51;1.85;;;1.20;;
20365;SDS011;10341;49.894;8.822;2023-11-19T06:56:20;1.50;;;1.15;;
20365;SDS011;10341;49.894;8.822;2023-11-19T07:01:40;2.22;;;1.50;;
20365;SDS011;10341;49.894;8.822;2023-11-19T07:07:02;2.38;;;1.60;;
20365;SDS011;10341;49.894;8.822;2023-11-19T07:12:21;2.03;;;1.57;;
20365;SDS011;10341;49.894;8.822;2023-11-19T07:17:40;1.83;;;1.48;;
20365;SDS011;10341;49.894;8.822;2023-11-19T07:22:59;3.97;;;1.70;;
20365;SDS011;10341;49.894;8.822;2023-11-19T07:28:19;3.50;;;2.53;;
20365;SDS011;10341;49.894;8.822;2023-11-19T07:33:39;3.47;;;2.40;;
20365;SDS011;10341;49.894;8.822;2023-11-19T07:38:58;2.65;;;2.28;;
20365;SDS011;10341;49.894;8.822;2023-11-19T07:44:18;3.47;;;2.35;;
20365;SDS011;10341;49.894;8.822;2023-11-19T07:49:38;7.10;;;1.95;;
20365;SDS011;10341;49.894;8.822;2023-11-19T07:54:57;1.75;;;1.63;;
20365;SDS011;10341;49.894;8.822;2023-11-19T08:00:17;2.05;;;1.50;;
20365;SDS011;10341;49.894;8.822;2023-11-19T08:05:38;2.38;;;1.38;;
20365;SDS011;10341;49.894;8.822;2023-11-19T08:10:58;1.90;;;0.93;;
20365;SDS011;10341;49.894;8.822;2023-11-19T08:16:17;1.40;;;1.00;;
20365;SDS011;10341;49.894;8.822;2023-11-19T08:21:36;3.10;;;0.77;;
20365;SDS011;10341;49.894;8.822;2023-11-19T08:26:56;2.10;;;0.90;;
20365;SDS011;10341;49.894;8.822;2023-11-19T08:32:14;1.25;;;0.70;;
20365;SDS011;10341;49.894;8.822;2023-11-19T08:37:34;2.57;;;0.60;;
20365;SDS011;10341;49.894;8.822;2023-11-19T08:42:55;1.85;;;0.52;;
20365;SDS011;10341;49.894;8.822;2023-11-19T08:48:15;0.60;;;0.55;;
20365;SDS011;10341;49.894;8.822;2023-11-19T08:53:34;1.98;;;0.65;;
20365;SDS011;10341;49.894;8.822;2023-11-19T09:04:13;3.17;;;0.80;;
20365;SDS011;10341;49.894;8.822;2023-11-19T09:09:33;1.40;;;0.77;;
20365;SDS011;10341;49.894;8.822;2023-11-19T09:14:54;1.90;;;0.95;;
20365;SDS011;10341;49.894;8.822;2023-11-19T09:20:13;2.22;;;1.13;;
20365;SDS011;10341;49.894;8.822;2023-11-19T09:25:34;1.33;;;0.80;;
20365;SDS011;10341;49.894;8.822;2023-11-19T09:30:53;4.22;;;1.08;;
20365;SDS011;10341;49.894;8.822;2023-11-19T09:36:12;3.72;;;1.13;;
20365;SDS011;10341;49.894;8.822;2023-11-19T09:41:35;1.83;;;0.70;;
20365;SDS011;10341;49.894;8.822;2023-11-19T09:46:54;2.03;;;0.65;;
20365;SDS011;10341;49.894;8.822;2023-11-19T09:57:33;3.47;;;0.80;;
20365;SDS011;10341;49.894;8.822;2023-11-19T10:02:55;1.38;;;0.60;;
20365;SDS011;10341;49.894;8.822;2023-11-19T10:08:16;2.08;;;1.00;;
20365;SDS011;10341;49.894;8.822;2023-11-19T10:19:00;3.40;;;1.08;;
20365;SDS011;10341;49.894;8.822;2023-11-19T10:24:30;2.25;;;0.90;;
20365;SDS011;10341;49.894;8.822;2023-11-19T10:29:52;1.75;;;1.30;;
20365;SDS011;10341;49.894;8.822;2023-11-19T10:35:11;3.17;;;1.23;;
20365;SDS011;10341;49.894;8.822;2023-11-19T10:40:38;2.08;;;1.08;;
20365;SDS011;10341;49.894;8.822;2023-11-19T10:46:11;2.65;;;1.20;;
20365;SDS011;10341;49.894;8.822;2023-11-19T10:56:54;2.88;;;1.50;;
20365;SDS011;10341;49.894;8.822;2023-11-19T11:02:18;3.60;;;1.42;;
20365;SDS011;10341;49.894;8.822;2023-11-19T11:07:40;3.30;;;1.27;;
20365;SDS011;10341;49.894;8.822;2023-11-19T11:13:02;3.35;;;1.08;;
20365;SDS011;10341;49.894;8.822;2023-11-19T11:18:22;4.85;;;1.20;;
20365;SDS011;10341;49.894;8.822;2023-11-19T11:40:33;2.70;;;0.80;;
20365;SDS011;10341;49.894;8.822;2023-11-19T11:45:53;2.50;;;0.80;;
20365;SDS011;10341;49.894;8.822;2023-11-19T11:51:12;6.38;;;0.93;;
20365;SDS011;10341;49.894;8.822;2023-11-19T11:56:36;1.27;;;0.93;;
20365;SDS011;10341;49.894;8.822;2023-11-19T12:01:57;4.15;;;1.00;;
20365;SDS011;10341;49.894;8.822;2023-11-19T12:07:18;2.95;;;0.90;;
20365;SDS011;10341;49.894;8.822;2023-11-19T12:12:42;4.40;;;1.17;;
20365;SDS011;10341;49.894;8.822;2023-11-19T12:18:02;3.83;;;0.90;;
20365;SDS011;10341;49.894;8.822;2023-11-19T12:23:22;2.80;;;0.85;;
20365;SDS011;10341;49.894;8.822;2023-11-19T12:28:42;3.15;;;0.73;;
20365;SDS011;10341;49.894;8.822;2023-11-19T12:34:16;2.85;;;0.80;;
20365;SDS011;10341;49.894;8.822;2023-11-19T12:39:35;2.95;;;1.20;;
20365;SDS011;10341;49.894;8.822;2023-11-19T12:44:55;5.72;;;1.20;;
20365;SDS011;10341;49.894;8.822;2023-11-19T12:50:15;3.17;;;0.77;;
20365;SDS011;10341;49.894;8.822;2023-11-19T12:55:39;3.08;;;1.00;;
20365;SDS011;10341;49.894;8.822;2023-11-19T13:00:59;4.47;;;1.10;;
20365;SDS011;10341;49.894;8.822;2023-11-19T13:06:22;2.92;;;0.82;;
20365;SDS011;10341;49.894;8.822;2023-11-19T13:11:41;5.85;;;0.90;;
20365;SDS011;10341;49.894;8.822;2023-11-19T13:17:00;4.38;;;1.17;;
20365;SDS011;10341;49.894;8.822;2023-11-19T13:22:20;5.13;;;1.40;;
20365;SDS011;10341;49.894;8.822;2023-11-19T13:27:39;8.95;;;1.27;;
20365;SDS011;10341;49.894;8.822;2023-11-19T13:32:58;4.05;;;0.93;;
20365;SDS011;10341;49.894;8.822;2023-11-19T13:38:19;3.65;;;1.00;;
20365;SDS011;10341;49.894;8.822;2023-11-19T13:43:39;4.10;;;1.30;;
20365;SDS011;10341;49.894;8.822;2023-11-19T13:48:58;5.38;;;1.08;;
20365;SDS011;10341;49.894;8.822;2023-11-19T13:54:17;4.75;;;1.00;;
20365;SDS011;10341;49.894;8.822;2023-11-19T13:59:41;4.45;;;1.05;;
20365;SDS011;10341;49.894;8.822;2023-11-19T14:05:01;3.65;;;0.90;;
20365;SDS011;10341;49.894;8.822;2023-11-19T14:10:20;2.85;;;1.10;;
20365;SDS011;10341;49.894;8.822;2023-11-19T14:15:40;5.47;;;1.10;;
20365;SDS011;10341;49.894;8.822;2023-11-19T14:21:00;6.63;;;1.60;;
20365;SDS011;10341;49.894;8.822;2023-11-19T14:26:19;4.90;;;1.02;;
20365;SDS011;10341;49.894;8.822;2023-11-19T14:31:39;2.97;;;0.90;;
20365;SDS011;10341;49.894;8.822;2023-11-19T14:36:59;6.65;;;1.38;;
20365;SDS011;10341;49.894;8.822;2023-11-19T14:42:19;3.38;;;0.90;;
20365;SDS011;10341;49.894;8.822;2023-11-19T14:47:38;2.17;;;0.88;;
20365;SDS011;10341;49.894;8.822;2023-11-19T14:52:58;5.35;;;1.42;;
20365;SDS011;10341;49.894;8.822;2023-11-19T14:58:17;2.95;;;0.90;;
20365;SDS011;10341;49.894;8.822;2023-11-19T15:03:37;3.38;;;1.08;;
20365;SDS011;10341;49.894;8.822;2023-11-19T15:08:56;4.95;;;1.20;;
20365;SDS011;10341;49.894;8.822;2023-11-19T15:14:15;6.63;;;1.75;;
20365;SDS011;10341;49.894;8.822;2023-11-19T15:19:37;6.45;;;1.10;;
20365;SDS011;10341;49.894;8.822;2023-11-19T15:30:16;4.00;;;1.10;;
20365;SDS011;10341;49.894;8.822;2023-11-19T15:35:36;6.05;;;1.30;;
20365;SDS011;10341;49.894;8.822;2023-11-19T15:40:55;3.17;;;1.13;;
20365;SDS011;10341;49.894;8.822;2023-11-19T15:46:16;4.18;;;0.90;;
20365;SDS011;10341;49.894;8.822;2023-11-19T15:51:35;3.50;;;1.20;;
20365;SDS011;10341;49.894;8.822;2023-11-19T15:56:54;8.45;;;1.75;;
20365;SDS011;10341;49.894;8.822;2023-11-19T16:02:14;5.35;;;0.98;;
20365;SDS011;10341;49.894;8.822;2023-11-19T16:12:54;2.80;;;0.90;;
20365;SDS011;10341;49.894;8.822;2023-11-19T16:18:14;4.28;;;0.95;;
20365;SDS011;10341;49.894;8.822;2023-11-19T16:23:33;5.40;;;1.13;;
20365;SDS011;10341;49.894;8.822;2023-11-19T16:28:53;6.10;;;1.40;;
20365;SDS011;10341;49.894;8.822;2023-11-19T16:34:13;4.22;;;1.50;;
20365;SDS011;10341;49.894;8.822;2023-11-19T16:39:33;3.63;;;1.27;;
20365;SDS011;10341;49.894;8.822;2023-11-19T16:44:52;4.43;;;0.98;;
20365;SDS011;10341;49.894;8.822;2023-11-19T16:50:12;4.35;;;1.70;;
20365;SDS011;10341;49.894;8.822;2023-11-19T16:55:33;4.95;;;1.05;;
20365;SDS011;10341;49.894;8.822;2023-11-19T17:00:54;5.57;;;1.00;;
20365;SDS011;10341;49.894;8.822;2023-11-19T17:06:12;5.93;;;1.25;;
20365;SDS011;10341;49.894;8.822;2023-11-19T17:11:33;6.22;;;1.42;;
20365;SDS011;10341;49.894;8.822;2023-11-19T17:16:54;5.05;;;1.13;;
20365;SDS011;10341;49.894;8.822;2023-11-19T17:22:14;7.10;;;1.50;;
20365;SDS011;10341;49.894;8.822;2023-11-19T17:27:33;5.10;;;1.10;;
20365;SDS011;10341;49.894;8.822;2023-11-19T17:32:53;3.90;;;1.05;;
20365;SDS011;10341;49.894;8.822;2023-11-19T17:38:12;6.53;;;1.20;;
20365;SDS011;10341;49.894;8.822;2023-11-19T17:43:32;5.95;;;1.13;;
20365;SDS011;10341;49.894;8.822;2023-11-19T17:48:51;4.53;;;1.60;;
20365;SDS011;10341;49.894;8.822;2023-11-19T17:54:11;5.93;;;1.27;;
20365;SDS011;10341;49.894;8.822;2023-11-19T17:59:30;7.60;;;1.83;;
20365;SDS011;10341;49.894;8.822;2023-11-19T18:04:50;4.65;;;1.50;;
20365;SDS011;10341;49.894;8.822;2023-11-19T18:10:09;4.47;;;1.20;;
20365;SDS011;10341;49.894;8.822;2023-11-19T18:15:29;7.85;;;1.27;;
20365;SDS011;10341;49.894;8.822;2023-11-19T18:20:48;5.47;;;1.40;;
20365;SDS011;10341;49.894;8.822;2023-11-19T18:26:07;7.47;;;1.50;;
20365;SDS011;10341;49.894;8.822;2023-11-19T18:31:26;4.50;;;1.08;;
20365;SDS011;10341;49.894;8.822;2023-11-19T18:36:46;6.05;;;1.63;;
20365;SDS011;10341;49.894;8.822;2023-11-19T18:42:06;3.40;;;1.17;;
20365;SDS011;10341;49.894;8.822;2023-11-19T18:47:26;7.72;;;2.30;;
20365;SDS011;10341;49.894;8.822;2023-11-19T18:52:46;6.25;;;1.23;;
20365;SDS011;10341;49.894;8.822;2023-11-19T18:58:06;5.63;;;1.40;;
20365;SDS011;10341;49.894;8.822;2023-11-19T19:03:25;5.85;;;1.42;;
20365;SDS011;10341;49.894;8.822;2023-11-19T19:08:49;7.45;;;1.92;;
20365;SDS011;10341;49.894;8.822;2023-11-19T19:14:09;6.38;;;1.55;;
20365;SDS011;10341;49.894;8.822;2023-11-19T19:19:30;8.40;;;1.70;;
20365;SDS011;10341;49.894;8.822;2023-11-19T19:24:49;9.02;;;1.67;;
20365;SDS011;10341;49.894;8.822;2023-11-19T19:30:09;10.80;;;2.03;;
20365;SDS011;10341;49.894;8.822;2023-11-19T19:35:29;9.10;;;2.15;;
20365;SDS011;10341;49.894;8.822;2023-11-19T19:46:09;8.13;;;1.40;;
20365;SDS011;10341;49.894;8.822;2023-11-19T19:51:28;10.47;;;1.77;;
20365;SDS011;10341;49.894;8.822;2023-11-19T19:56:47;3.78;;;1.33;;
20365;SDS011;10341;49.894;8.822;2023-11-19T20:02:06;6.60;;;1.47;;
20365;SDS011;10341;49.894;8.822;2023-11-19T20:07:26;7.40;;;1.90;;
20365;SDS011;10341;49.894;8.822;2023-11-19T20:12:45;10.38;;;1.98;;
20365;SDS011;10341;49.894;8.822;2023-11-19T20:18:04;10.48;;;2.10;;
20365;SDS011;10341;49.894;8.822;2023-11-19T20:23:29;11.15;;;1.80;;
20365;SDS011;10341;49.894;8.822;2023-11-19T20:28:48;8.95;;;1.70;;
20365;SDS011;10341;49.894;8.822;2023-11-19T20:34:07;7.53;;;1.70;;
20365;SDS011;10341;49.894;8.822;2023-11-19T20:39:26;8.20;;;1.73;;
20365;SDS011;10341;49.894;8.822;2023-11-19T20:44:46;9.27;;;1.95;;
20365;SDS011;10341;49.894;8.822;2023-11-19T20:50:06;10.80;;;2.05;;
20365;SDS011;10341;49.894;8.822;2023-11-19T20:55:26;9.63;;;2.08;;
20365;SDS011;10341;49.894;8.822;2023-11-19T21:00:46;10.63;;;2.38;;
20365;SDS011;10341;49.894;8.822;2023-11-19T21:06:05;9.65;;;1.77;;
20365;SDS011;10341;49.894;8.822;2023-11-19T21:11:25;13.15;;;1.90;;
20365;SDS011;10341;49.894;8.822;2023-11-19T21:16:44;10.95;;;2.03;;
20365;SDS011;10341;49.894;8.822;2023-11-19T21:22:03;9.63;;;1.83;;
20365;SDS011;10341;49.894;8.822;2023-11-19T21:27:23;9.75;;;1.80;;
20365;SDS011;10341;49.894;8.822;2023-11-19T21:32:42;5.88;;;2.05;;
20365;SDS011;10341;49.894;8.822;2023-11-19T21:38:01;13.38;;;2.00;;
20365;SDS011;10341;49.894;8.822;2023-11-19T21:43:20;10.15;;;2.33;;
20365;SDS011;10341;49.894;8.822;2023-11-19T21:48:41;8.95;;;2.25;;
20365;SDS011;10341;49.894;8.822;2023-11-19T21:54:00;7.82;;;1.90;;
20365;SDS011;10341;49.894;8.822;2023-11-19T21:59:21;10.48;;;1.77;;
20365;SDS011;10341;49.894;8.822;2023-11-19T22:04:40;10.57;;;1.88;;
20365;SDS011;10341;49.894;8.822;2023-11-19T22:09:59;12.35;;;2.33;;
20365;SDS011;10341;49.894;8.822;2023-11-19T22:15:18;6.95;;;1.70;;
20365;SDS011;10341;49.894;8.822;2023-11-19T22:20:37;12.63;;;2.13;;
20365;SDS011;10341;49.894;8.822;2023-11-19T22:25:56;9.20;;;1.73;;
20365;SDS011;10341;49.894;8.822;2023-11-19T22:31:15;8.38;;;2.08;;
20365;SDS011;10341;49.894;8.822;2023-11-19T22:36:34;10.32;;;2.17;;
20365;SDS011;10341;49.894;8.822;2023-11-19T22:41:53;12.65;;;2.30;;
20365;SDS011;10341;49.894;8.822;2023-11-19T22:47:13;5.47;;;1.40;;
20365;SDS011;10341;49.894;8.822;2023-11-19T22:52:32;10.90;;;2.10;;
20365;SDS011;10341;49.894;8.822;2023-11-19T22:57:52;9.45;;;1.80;;
20365;SDS011;10341;49.894;8.822;2023-11-19T23:03:11;10.52;;;2.13;;
20365;SDS011;10341;49.894;8.822;2023-11-19T23:08:31;9.60;;;2.57;;
20365;SDS011;10341;49.894;8.822;2023-11-19T23:13:50;7.60;;;2.03;;
20365;SDS011;10341;49.894;8.822;2023-11-19T23:19:09;9.60;;;2.47;;
20365;SDS011;10341;49.894;8.822;2023-11-19T23:29:48;9.75;;;1.67;;
20365;SDS011;10341;49.894;8.822;2023-11-19T23:35:07;10.52;;;1.95;;
20365;SDS011;10341;49.894;8.822;2023-11-19T23:40:29;10.52;;;2.10;;
20365;SDS011;10341;49.894;8.822;2023-11-19T23:45:49;10.43;;;1.95;;
20365;SDS011;10341;49.894;8.822;2023-11-19T23:51:08;8.43;;;1.70;;
20365;SDS011;10341;49.894;8.822;2023-11-19T23:56:27;10.67;;;1.70;;
